Alyeska Resort
Max's Hourly Weather Roundup
ALYESKA_MAX 7/3/2015
Click Here for Graph

        DATE  TIME   Air  Wind  Wind  Wind  BATT   Rel
                    Temp   Spd   Dir  Gust  Volt  Hum%
                      F   MPH   AVG   MPH   AVG   AVG

    7/3/2015 12:00    52     4   147    17 13.72    87
    7/3/2015 11:00    51     3   171    15 13.64    88
    7/3/2015 10:00    52     1   185     8 13.60    86
    7/3/2015 09:00    50     2   188     7 13.60    89
    7/3/2015 08:00    50     2   113     8 13.64    87
    7/3/2015 07:00    49     2    82     7 13.06    88
    7/3/2015 06:00    47     3    64     7 12.80    89
    7/3/2015 05:00    46     3    89     4 12.78    94
    7/3/2015 04:00    46     2   148     6 12.81    95
    7/3/2015 03:00    46     1   164     3 12.84   100
    7/3/2015 02:00    46     1    70     3 12.88   100
    7/3/2015 01:00    46     2   228     3 12.93   100
    7/2/2015 24:00    47     1           2 13.03   100
    7/2/2015 23:00    48     1   292     3 13.29    98
    7/2/2015 22:00    50     2   267     4 13.98    96
    7/2/2015 21:00    49     2   159     5 13.94    99
    7/2/2015 20:00    49     2   186     7 13.92   100
    7/2/2015 19:00    49     3   236    11 13.91   100
    7/2/2015 18:00    48     1   179     6 13.91   100
    7/2/2015 17:00    44     9   169    17 13.92   100
    7/2/2015 16:00    44    13   191    22 13.91   100
    7/2/2015 15:00    43    14   197    19 13.90   100
    7/2/2015 14:00    43    14   193    21 13.87   100
    7/2/2015 13:00    42    12   201    24 13.81   100


Click Here for Graph